Great Diamond Island, Maine
Current Conditions -  °F | °C
As of 8:51 AM on Wednesday 28 Jan 2015 (Local Time) from KPWM Reporting Station
Overcast Overcast  
Wind Chill:   Ceiling: 4100
Heat Index: 18°   Visibility: 10mi
Dew Point:   Wind: 13mph
Humidity: 60%   Direction: 330°NNW
Pressure: 29.87"   Gusts: 22mph
Location:  43.6801°N, 70.1969°W
Report Text: KPWM 281351Z 33011G19KT 10SM OVC041 M08/M14 A2987 RMK AO2 SLP118 T10781144
Loading
Personal Weather Stations






























Interactive Weather Map New forecast layout! Learn more

10-Day Weather Forecast

Advertisements
Track Severe Weather on mobile